sensor_id;sensor_type;location;lat;lon;timestamp;P1;durP1;ratioP1;P2;durP2;ratioP2
62153;SDS011;48140;45.486;9.226;2023-04-24T00:01:48;4.47;;;3.10;;
62153;SDS011;48140;45.486;9.226;2023-04-24T00:04:14;7.45;;;3.20;;
62153;SDS011;48140;45.486;9.226;2023-04-24T00:06:41;8.65;;;3.47;;
62153;SDS011;48140;45.486;9.226;2023-04-24T00:09:08;6.35;;;3.28;;
62153;SDS011;48140;45.486;9.226;2023-04-24T00:11:35;5.15;;;2.85;;
62153;SDS011;48140;45.486;9.226;2023-04-24T00:14:01;4.78;;;3.30;;
62153;SDS011;48140;45.486;9.226;2023-04-24T00:16:27;4.97;;;3.10;;
62153;SDS011;48140;45.486;9.226;2023-04-24T00:18:53;5.50;;;2.95;;
62153;SDS011;48140;45.486;9.226;2023-04-24T00:21:19;6.95;;;3.72;;
62153;SDS011;48140;45.486;9.226;2023-04-24T00:23:45;4.93;;;3.20;;
62153;SDS011;48140;45.486;9.226;2023-04-24T00:26:11;5.47;;;3.10;;
62153;SDS011;48140;45.486;9.226;2023-04-24T00:28:36;6.88;;;3.17;;
62153;SDS011;48140;45.486;9.226;2023-04-24T00:31:02;9.70;;;3.83;;
62153;SDS011;48140;45.486;9.226;2023-04-24T00:33:28;6.07;;;3.35;;
62153;SDS011;48140;45.486;9.226;2023-04-24T00:35:53;5.38;;;3.10;;
62153;SDS011;48140;45.486;9.226;2023-04-24T00:38:19;4.45;;;3.13;;
62153;SDS011;48140;45.486;9.226;2023-04-24T00:40:45;5.20;;;3.20;;
62153;SDS011;48140;45.486;9.226;2023-04-24T00:43:10;5.57;;;3.53;;
62153;SDS011;48140;45.486;9.226;2023-04-24T00:45:36;5.03;;;3.00;;
62153;SDS011;48140;45.486;9.226;2023-04-24T00:48:02;8.02;;;3.40;;
62153;SDS011;48140;45.486;9.226;2023-04-24T00:50:29;7.20;;;3.35;;
62153;SDS011;48140;45.486;9.226;2023-04-24T00:52:55;6.75;;;3.45;;
62153;SDS011;48140;45.486;9.226;2023-04-24T00:55:21;5.30;;;3.28;;
62153;SDS011;48140;45.486;9.226;2023-04-24T00:57:46;5.07;;;3.28;;
62153;SDS011;48140;45.486;9.226;2023-04-24T01:00:13;6.53;;;3.28;;
62153;SDS011;48140;45.486;9.226;2023-04-24T01:05:16;5.22;;;3.00;;
62153;SDS011;48140;45.486;9.226;2023-04-24T01:07:43;5.47;;;2.90;;
62153;SDS011;48140;45.486;9.226;2023-04-24T01:10:11;6.18;;;3.22;;
62153;SDS011;48140;45.486;9.226;2023-04-24T01:12:37;5.72;;;3.05;;
62153;SDS011;48140;45.486;9.226;2023-04-24T01:15:04;6.80;;;3.60;;
62153;SDS011;48140;45.486;9.226;2023-04-24T01:17:31;4.93;;;2.85;;
62153;SDS011;48140;45.486;9.226;2023-04-24T01:19:57;5.40;;;3.13;;
62153;SDS011;48140;45.486;9.226;2023-04-24T01:22:26;5.95;;;3.30;;
62153;SDS011;48140;45.486;9.226;2023-04-24T01:27:27;6.60;;;3.15;;
62153;SDS011;48140;45.486;9.226;2023-04-24T01:29:52;6.03;;;3.72;;
62153;SDS011;48140;45.486;9.226;2023-04-24T01:32:18;8.80;;;4.55;;
62153;SDS011;48140;45.486;9.226;2023-04-24T01:34:45;7.47;;;3.70;;
62153;SDS011;48140;45.486;9.226;2023-04-24T01:37:11;6.63;;;3.80;;
62153;SDS011;48140;45.486;9.226;2023-04-24T01:39:37;10.30;;;3.80;;
62153;SDS011;48140;45.486;9.226;2023-04-24T01:42:03;6.68;;;3.60;;
62153;SDS011;48140;45.486;9.226;2023-04-24T01:44:30;7.28;;;3.97;;
62153;SDS011;48140;45.486;9.226;2023-04-24T01:46:56;7.47;;;4.05;;
62153;SDS011;48140;45.486;9.226;2023-04-24T01:49:22;6.78;;;4.22;;
62153;SDS011;48140;45.486;9.226;2023-04-24T01:51:47;6.55;;;3.97;;
62153;SDS011;48140;45.486;9.226;2023-04-24T01:54:13;6.43;;;3.85;;
62153;SDS011;48140;45.486;9.226;2023-04-24T01:56:40;8.90;;;4.20;;
62153;SDS011;48140;45.486;9.226;2023-04-24T01:59:10;8.10;;;4.28;;
62153;SDS011;48140;45.486;9.226;2023-04-24T02:01:37;7.45;;;4.18;;
62153;SDS011;48140;45.486;9.226;2023-04-24T02:04:06;7.05;;;4.05;;
62153;SDS011;48140;45.486;9.226;2023-04-24T02:06:32;7.95;;;4.43;;
62153;SDS011;48140;45.486;9.226;2023-04-24T02:08:59;7.60;;;4.18;;
62153;SDS011;48140;45.486;9.226;2023-04-24T02:11:26;6.43;;;3.95;;
62153;SDS011;48140;45.486;9.226;2023-04-24T02:13:52;8.07;;;4.00;;
62153;SDS011;48140;45.486;9.226;2023-04-24T02:16:18;7.60;;;4.10;;
62153;SDS011;48140;45.486;9.226;2023-04-24T02:18:44;7.15;;;4.32;;
62153;SDS011;48140;45.486;9.226;2023-04-24T02:21:10;7.80;;;4.30;;
62153;SDS011;48140;45.486;9.226;2023-04-24T02:23:36;6.70;;;3.85;;
62153;SDS011;48140;45.486;9.226;2023-04-24T02:26:01;7.13;;;4.03;;
62153;SDS011;48140;45.486;9.226;2023-04-24T02:28:27;6.15;;;3.63;;
62153;SDS011;48140;45.486;9.226;2023-04-24T02:30:53;5.25;;;3.58;;
62153;SDS011;48140;45.486;9.226;2023-04-24T02:33:18;7.50;;;4.30;;
62153;SDS011;48140;45.486;9.226;2023-04-24T02:35:46;6.97;;;3.90;;
62153;SDS011;48140;45.486;9.226;2023-04-24T02:38:12;7.45;;;4.43;;
62153;SDS011;48140;45.486;9.226;2023-04-24T03:41:00;6.43;;;3.60;;
62153;SDS011;48140;45.486;9.226;2023-04-24T03:43:25;7.28;;;3.88;;
62153;SDS011;48140;45.486;9.226;2023-04-24T03:45:52;5.28;;;3.45;;
62153;SDS011;48140;45.486;9.226;2023-04-24T03:48:19;5.47;;;3.22;;
62153;SDS011;48140;45.486;9.226;2023-04-24T03:50:44;6.78;;;3.53;;
62153;SDS011;48140;45.486;9.226;2023-04-24T03:53:10;5.10;;;3.17;;
62153;SDS011;48140;45.486;9.226;2023-04-24T03:55:36;6.68;;;3.33;;
62153;SDS011;48140;45.486;9.226;2023-04-24T03:58:02;4.88;;;3.17;;
62153;SDS011;48140;45.486;9.226;2023-04-24T04:00:27;4.22;;;2.67;;
62153;SDS011;48140;45.486;9.226;2023-04-24T04:02:53;3.97;;;2.90;;
62153;SDS011;48140;45.486;9.226;2023-04-24T04:05:19;4.80;;;3.30;;
62153;SDS011;48140;45.486;9.226;2023-04-24T04:07:44;5.47;;;2.80;;
62153;SDS011;48140;45.486;9.226;2023-04-24T04:10:10;4.45;;;3.13;;
62153;SDS011;48140;45.486;9.226;2023-04-24T04:12:36;7.85;;;3.00;;
62153;SDS011;48140;45.486;9.226;2023-04-24T04:15:01;4.80;;;2.85;;
62153;SDS011;48140;45.486;9.226;2023-04-24T04:17:27;4.95;;;3.00;;
62153;SDS011;48140;45.486;9.226;2023-04-24T04:19:53;5.70;;;3.15;;
62153;SDS011;48140;45.486;9.226;2023-04-24T04:22:20;4.22;;;3.08;;
62153;SDS011;48140;45.486;9.226;2023-04-24T04:24:47;3.92;;;2.80;;
62153;SDS011;48140;45.486;9.226;2023-04-24T04:27:16;4.07;;;3.00;;
62153;SDS011;48140;45.486;9.226;2023-04-24T04:29:43;3.97;;;2.80;;
